Time;durP1;ratioP1;P1;durP2;ratioP2;P2;SDS_P1;SDS_P2;PMS_P1;PMS_P2;Temp;Humidity;BMP_temperature;BMP_pressure;BME280_temperature;BME280_humidity;BME280_pressure;Samples;Min_cycle;Max_cycle;Signal;HPM_P1;HPM_P2
2021/09/24 00:00:23;;;;;;;7.53;5.10;;;14.00;99.90;;;;;;5052385;28;20079;-76
2021/09/24 00:02:49;;;;;;;7.32;5.53;;;14.00;99.90;;;;;;5057845;28;20039;-76
2021/09/24 00:05:14;;;;;;;7.82;5.20;;;14.00;99.90;;;;;;5058875;28;20108;-76
2021/09/24 00:07:40;;;;;;;8.73;5.45;;;14.10;99.90;;;;;;5051021;28;20390;-76
2021/09/24 00:10:07;;;;;;;6.55;5.47;;;14.10;99.90;;;;;;5065664;28;20087;-76
2021/09/24 00:12:33;;;;;;;10.70;5.65;;;14.10;99.90;;;;;;5063923;28;20025;-76
2021/09/24 00:14:59;;;;;;;6.65;5.25;;;14.20;99.90;;;;;;5064364;28;20039;-75
2021/09/24 00:17:24;;;;;;;7.18;5.80;;;14.30;99.90;;;;;;5064410;28;20021;-77
2021/09/24 00:19:50;;;;;;;8.23;5.60;;;14.30;99.90;;;;;;5065661;28;20028;-77
2021/09/24 00:22:15;;;;;;;10.07;5.95;;;14.40;99.90;;;;;;5058972;28;20071;-77
2021/09/24 00:24:41;;;;;;;6.60;5.60;;;14.40;99.90;;;;;;5059873;28;20143;-77
2021/09/24 00:27:06;;;;;;;8.38;6.50;;;14.50;99.90;;;;;;5064816;28;20029;-76
2021/09/24 00:29:32;;;;;;;7.07;5.47;;;14.60;99.90;;;;;;5064545;28;20393;-76
2021/09/24 00:31:58;;;;;;;10.77;6.18;;;14.60;99.90;;;;;;5057086;28;20020;-75
2021/09/24 00:34:23;;;;;;;6.32;5.38;;;14.60;99.90;;;;;;5058190;28;20037;-76
2021/09/24 00:36:49;;;;;;;12.80;6.45;;;14.60;99.90;;;;;;5065228;28;20048;-75
2021/09/24 00:39:15;;;;;;;6.68;6.07;;;14.60;99.90;;;;;;5063089;28;20036;-75
2021/09/24 00:41:40;;;;;;;8.00;6.07;;;14.60;99.90;;;;;;5051231;28;20029;-75
2021/09/24 00:44:06;;;;;;;8.98;6.13;;;14.50;99.90;;;;;;5064020;28;20029;-76
2021/09/24 00:46:31;;;;;;;7.20;5.90;;;14.50;99.90;;;;;;5066621;28;20029;-76
2021/09/24 00:48:57;;;;;;;6.75;5.97;;;14.50;99.90;;;;;;5063761;28;20107;-76
2021/09/24 00:51:24;;;;;;;9.35;6.47;;;14.50;99.90;;;;;;5063649;28;20471;-75
2021/09/24 00:53:49;;;;;;;12.10;5.97;;;14.50;99.90;;;;;;5065094;28;20024;-76
2021/09/24 00:56:16;;;;;;;8.27;6.25;;;14.50;99.90;;;;;;5052977;28;20021;-78
2021/09/24 00:58:42;;;;;;;7.53;6.22;;;14.40;99.90;;;;;;5070188;28;20667;-76
2021/09/24 01:01:07;;;;;;;9.30;6.82;;;14.40;99.90;;;;;;5050377;28;20060;-77
2021/09/24 01:03:33;;;;;;;8.00;6.28;;;14.40;99.90;;;;;;5053221;28;20086;-78
2021/09/24 01:05:59;;;;;;;7.57;6.30;;;14.40;99.90;;;;;;5066837;28;20036;-78
2021/09/24 01:08:25;;;;;;;7.18;6.47;;;14.40;99.90;;;;;;5065940;28;20079;-76
2021/09/24 01:10:50;;;;;;;9.85;6.70;;;14.50;99.90;;;;;;5056659;28;20486;-76
2021/09/24 01:13:16;;;;;;;9.07;6.35;;;14.40;99.90;;;;;;5071443;28;20048;-75
2021/09/24 01:15:42;;;;;;;8.30;6.10;;;14.40;99.90;;;;;;5052078;28;20048;-75
2021/09/24 01:18:07;;;;;;;9.35;6.55;;;14.40;99.90;;;;;;5051605;28;20029;-76
2021/09/24 01:20:33;;;;;;;9.15;6.13;;;14.40;99.90;;;;;;5050030;28;20395;-77
2021/09/24 01:22:58;;;;;;;12.57;6.90;;;14.50;99.90;;;;;;5064018;28;20502;-76
2021/09/24 01:25:24;;;;;;;9.40;6.50;;;14.60;99.90;;;;;;5058197;28;20440;-77
2021/09/24 01:27:51;;;;;;;8.77;6.43;;;14.60;99.90;;;;;;5059112;28;20025;-73
2021/09/24 01:30:17;;;;;;;7.60;6.05;;;14.50;99.90;;;;;;5051270;28;20025;-74
2021/09/24 01:32:45;;;;;;;7.10;6.15;;;14.40;99.90;;;;;;5062550;28;20570;-74
2021/09/24 01:35:12;;;;;;;7.90;6.28;;;14.40;99.90;;;;;;5065587;28;20501;-74
2021/09/24 01:37:38;;;;;;;8.77;6.32;;;14.10;99.90;;;;;;5064502;28;20021;-74
2021/09/24 01:40:08;;;;;;;9.75;6.55;;;14.10;99.90;;;;;;5070098;28;20036;-75
2021/09/24 01:42:33;;;;;;;11.45;6.30;;;14.00;99.90;;;;;;5057700;28;20116;-75
2021/09/24 01:44:59;;;;;;;8.57;6.53;;;13.90;99.90;;;;;;5056888;28;20103;-74
2021/09/24 01:47:25;;;;;;;7.97;6.68;;;13.90;99.90;;;;;;5057797;28;20034;-75
2021/09/24 01:49:50;;;;;;;7.25;6.40;;;13.90;99.90;;;;;;5071114;28;20111;-75
2021/09/24 01:52:16;;;;;;;11.20;6.80;;;13.90;99.90;;;;;;5070843;28;20082;-75
2021/09/24 01:54:41;;;;;;;7.60;6.43;;;13.90;99.90;;;;;;5062678;28;20032;-75
2021/09/24 01:57:07;;;;;;;7.95;6.15;;;13.90;99.90;;;;;;5052483;28;20021;-75
2021/09/24 01:59:32;;;;;;;9.32;6.72;;;13.80;99.90;;;;;;5054724;28;20545;-74
2021/09/24 02:01:58;;;;;;;8.90;6.45;;;13.80;99.90;;;;;;5066871;28;20055;-74
2021/09/24 02:04:23;;;;;;;8.32;6.10;;;13.80;99.90;;;;;;5068004;28;20039;-74
2021/09/24 02:06:49;;;;;;;8.73;6.55;;;13.70;99.90;;;;;;5066355;28;20032;-75
2021/09/24 02:09:14;;;;;;;9.57;5.90;;;13.70;99.90;;;;;;5053460;28;20566;-74
2021/09/24 02:11:40;;;;;;;10.07;6.35;;;13.90;99.90;;;;;;5067348;28;20421;-73
2021/09/24 02:14:06;;;;;;;6.55;5.38;;;13.90;99.90;;;;;;5054619;28;20031;-74
2021/09/24 02:16:32;;;;;;;6.75;6.05;;;13.90;99.90;;;;;;5053093;28;20479;-74
2021/09/24 02:18:58;;;;;;;11.75;6.28;;;14.00;99.90;;;;;;5067873;28;20104;-74
2021/09/24 02:21:23;;;;;;;8.05;6.03;;;14.00;99.90;;;;;;5066100;28;20029;-75
2021/09/24 02:23:49;;;;;;;8.95;6.68;;;14.10;99.90;;;;;;5054332;28;20487;-75
2021/09/24 02:26:15;;;;;;;10.63;6.00;;;14.10;99.90;;;;;;5066415;28;20368;-75
2021/09/24 02:28:42;;;;;;;8.40;5.80;;;14.10;99.90;;;;;;5061068;28;20474;-75
2021/09/24 02:31:09;;;;;;;9.40;6.90;;;14.10;99.90;;;;;;5060653;28;20028;-77
2021/09/24 02:33:39;;;;;;;11.57;7.05;;;14.30;99.90;;;;;;5067710;28;20049;-76
2021/09/24 02:36:06;;;;;;;10.43;7.07;;;14.30;99.90;;;;;;5066727;28;20021;-74
2021/09/24 02:38:32;;;;;;;11.15;6.57;;;14.30;99.90;;;;;;5061872;28;20044;-76
2021/09/24 02:40:59;;;;;;;8.70;6.80;;;14.30;99.90;;;;;;5059808;28;20053;-77
2021/09/24 02:43:24;;;;;;;8.10;6.38;;;14.30;99.90;;;;;;5061432;28;20024;-77
2021/09/24 02:45:50;;;;;;;11.50;7.22;;;14.30;99.90;;;;;;5059520;28;20028;-77
2021/09/24 02:48:16;;;;;;;10.57;6.60;;;14.20;99.90;;;;;;5066269;28;20027;-76
2021/09/24 02:50:41;;;;;;;8.20;6.45;;;14.30;99.90;;;;;;5065639;28;20028;-76
2021/09/24 02:53:07;;;;;;;7.85;7.00;;;14.30;99.90;;;;;;5053738;28;20029;-75
2021/09/24 02:55:33;;;;;;;8.45;6.45;;;14.20;99.90;;;;;;5066968;28;20037;-76
2021/09/24 02:57:58;;;;;;;10.35;6.57;;;14.30;99.90;;;;;;5060299;28;20025;-76
2021/09/24 03:00:26;;;;;;;11.45;6.95;;;14.30;99.90;;;;;;5060158;28;20078;-76
2021/09/24 03:02:51;;;;;;;8.20;6.75;;;14.20;99.90;;;;;;5065518;28;20021;-75
2021/09/24 03:05:17;;;;;;;9.30;6.90;;;14.30;99.90;;;;;;5066706;28;20036;-75
2021/09/24 03:07:42;;;;;;;9.68;7.15;;;14.30;99.90;;;;;;5063976;28;20029;-75
2021/09/24 03:10:09;;;;;;;7.82;6.95;;;14.30;99.90;;;;;;5066094;28;20044;-75
2021/09/24 03:12:34;;;;;;;9.65;6.50;;;14.30;99.90;;;;;;5065669;28;20036;-77
2021/09/24 03:15:00;;;;;;;10.52;6.63;;;14.20;99.90;;;;;;5054176;28;20025;-77
2021/09/24 03:17:25;;;;;;;10.15;6.63;;;14.10;99.90;;;;;;5064969;28;20479;-76
2021/09/24 03:19:51;;;;;;;9.75;6.80;;;14.10;99.90;;;;;;5068166;28;20098;-76
2021/09/24 03:22:16;;;;;;;8.80;6.70;;;14.10;99.90;;;;;;5061387;28;20552;-76
2021/09/24 03:24:42;;;;;;;7.88;6.22;;;14.10;99.90;;;;;;5058644;28;20024;-76
2021/09/24 03:27:08;;;;;;;8.75;6.68;;;14.10;99.90;;;;;;5059739;28;20025;-77
2021/09/24 03:29:34;;;;;;;8.35;6.82;;;14.10;99.90;;;;;;5059332;28;20083;-76
2021/09/24 03:32:00;;;;;;;12.40;6.72;;;14.10;99.90;;;;;;5052896;28;20083;-77
2021/09/24 03:34:25;;;;;;;7.68;6.30;;;14.10;99.90;;;;;;5071597;28;20561;-75
2021/09/24 03:36:51;;;;;;;7.97;6.47;;;14.10;99.90;;;;;;5053033;28;20025;-76
2021/09/24 03:39:16;;;;;;;10.15;6.97;;;14.10;99.90;;;;;;5052822;28;20025;-76
2021/09/24 03:41:44;;;;;;;9.40;6.07;;;14.10;99.90;;;;;;5065971;28;20033;-77
2021/09/24 03:44:10;;;;;;;9.48;7.32;;;14.10;99.90;;;;;;5066011;28;20505;-76
2021/09/24 03:46:36;;;;;;;9.70;6.35;;;14.20;99.90;;;;;;5059515;28;20442;-76
2021/09/24 03:49:03;;;;;;;10.07;6.28;;;14.10;99.90;;;;;;5058067;28;20036;-77
2021/09/24 03:51:29;;;;;;;9.20;6.75;;;14.10;99.90;;;;;;5052534;28;20128;-75
2021/09/24 03:53:55;;;;;;;9.50;6.57;;;14.00;99.90;;;;;;5065646;28;20491;-75
2021/09/24 03:56:21;;;;;;;7.65;6.00;;;14.10;99.90;;;;;;5066923;28;20028;-75
2021/09/24 03:58:46;;;;;;;6.88;6.07;;;14.10;99.90;;;;;;5071803;28;20097;-74
2021/09/24 04:01:11;;;;;;;8.55;6.15;;;14.10;99.90;;;;;;5059672;28;20467;-74
2021/09/24 04:03:37;;;;;;;8.90;5.80;;;14.10;99.90;;;;;;5059249;28;20033;-75
2021/09/24 04:06:03;;;;;;;9.30;6.32;;;14.10;99.90;;;;;;5060096;28;20032;-75
2021/09/24 04:08:28;;;;;;;9.55;6.43;;;14.10;99.90;;;;;;5059743;28;20479;-77
2021/09/24 04:10:54;;;;;;;7.03;6.00;;;14.10;99.90;;;;;;5052190;28;20029;-76
2021/09/24 04:13:23;;;;;;;8.00;5.93;;;14.00;99.90;;;;;;5065463;28;20016;-75
2021/09/24 04:15:48;;;;;;;8.48;5.85;;;14.10;99.90;;;;;;5063514;28;20055;-76
2021/09/24 04:18:14;;;;;;;7.10;5.65;;;14.10;99.90;;;;;;5067373;28;20103;-75
2021/09/24 04:20:40;;;;;;;10.45;6.50;;;14.10;99.90;;;;;;5051646;28;20036;-75
2021/09/24 04:23:05;;;;;;;7.75;5.90;;;14.00;99.90;;;;;;5058111;28;20491;-75
2021/09/24 04:25:31;;;;;;;8.52;5.90;;;14.10;99.90;;;;;;5050712;28;20433;-75
2021/09/24 04:27:57;;;;;;;8.77;6.57;;;14.10;99.90;;;;;;5065419;28;20395;-76
2021/09/24 04:30:23;;;;;;;9.60;6.05;;;14.00;99.90;;;;;;5058825;28;20025;-75
2021/09/24 04:32:49;;;;;;;7.05;5.80;;;14.00;99.90;;;;;;5058011;28;20466;-75
2021/09/24 04:35:15;;;;;;;7.10;5.80;;;14.10;99.90;;;;;;5052082;28;20096;-76
2021/09/24 04:37:41;;;;;;;7.80;6.20;;;14.10;99.90;;;;;;5052612;28;20021;-77
2021/09/24 04:40:07;;;;;;;11.10;6.82;;;14.00;99.90;;;;;;5052022;28;20035;-76
2021/09/24 04:42:33;;;;;;;8.25;6.57;;;14.00;99.90;;;;;;5064790;28;20020;-76
2021/09/24 04:44:59;;;;;;;10.50;6.10;;;13.90;99.90;;;;;;5050678;28;20098;-76
2021/09/24 04:47:25;;;;;;;8.38;6.40;;;14.00;99.90;;;;;;5062277;28;20776;-74
2021/09/24 04:49:51;;;;;;;9.60;6.53;;;14.00;99.90;;;;;;5067324;28;20024;-75
2021/09/24 04:52:18;;;;;;;8.98;6.40;;;14.00;99.90;;;;;;5056083;28;20029;-75
2021/09/24 04:54:44;;;;;;;10.73;6.50;;;14.00;99.90;;;;;;5051710;28;20525;-76
2021/09/24 04:57:09;;;;;;;7.43;5.93;;;14.00;99.90;;;;;;5053998;28;20037;-76
2021/09/24 04:59:35;;;;;;;7.47;5.97;;;14.00;99.90;;;;;;5063306;28;20029;-76
2021/09/24 05:02:01;;;;;;;9.30;6.38;;;14.00;99.90;;;;;;5051964;28;20032;-75
2021/09/24 05:04:26;;;;;;;8.25;6.22;;;14.00;99.90;;;;;;5071724;28;20032;-76
2021/09/24 05:06:52;;;;;;;10.13;6.65;;;14.00;99.90;;;;;;5070385;28;20033;-76
2021/09/24 05:09:17;;;;;;;8.90;6.50;;;14.00;99.90;;;;;;5071587;28;20035;-74
2021/09/24 05:11:43;;;;;;;9.15;6.60;;;14.00;99.90;;;;;;5070056;28;20417;-75
2021/09/24 05:14:08;;;;;;;7.60;5.80;;;14.00;99.90;;;;;;5064356;28;20079;-75
2021/09/24 05:16:34;;;;;;;9.23;6.63;;;14.00;99.90;;;;;;5071248;28;20086;-76
2021/09/24 05:18:59;;;;;;;8.70;6.72;;;13.90;99.90;;;;;;5051537;28;20032;-76
2021/09/24 05:21:25;;;;;;;8.88;6.60;;;14.00;99.90;;;;;;5069812;28;20024;-75
2021/09/24 05:23:50;;;;;;;7.63;6.68;;;14.00;99.90;;;;;;5056954;28;20088;-75
2021/09/24 05:26:16;;;;;;;11.57;6.80;;;14.00;99.90;;;;;;5057876;28;20033;-75
2021/09/24 05:28:41;;;;;;;7.57;6.40;;;14.00;99.90;;;;;;5070026;28;20021;-72
2021/09/24 05:31:07;;;;;;;10.70;6.80;;;14.00;99.90;;;;;;5057860;28;20052;-70
2021/09/24 05:33:33;;;;;;;13.40;6.95;;;14.00;99.90;;;;;;5063134;28;20029;-70
2021/09/24 05:35:58;;;;;;;11.27;5.82;;;14.00;99.90;;;;;;5066000;28;20082;-75
2021/09/24 05:38:25;;;;;;;8.43;6.07;;;14.00;99.90;;;;;;5070900;28;20016;-75
2021/09/24 05:40:51;;;;;;;8.00;6.13;;;14.00;99.90;;;;;;5074750;28;20013;-75
2021/09/24 05:43:16;;;;;;;10.07;7.43;;;14.00;99.90;;;;;;5074858;28;20032;-75
2021/09/24 05:45:42;;;;;;;7.28;6.57;;;14.00;99.90;;;;;;5061889;28;20024;-75
2021/09/24 05:48:08;;;;;;;8.25;5.97;;;14.10;99.90;;;;;;5061065;28;20028;-75
2021/09/24 05:50:33;;;;;;;10.68;6.53;;;14.00;99.90;;;;;;5067845;28;20040;-75
2021/09/24 05:53:01;;;;;;;7.28;6.40;;;14.10;99.90;;;;;;5068289;28;20021;-76
2021/09/24 05:55:27;;;;;;;7.45;6.18;;;14.10;99.90;;;;;;5068005;28;20032;-75
2021/09/24 05:57:53;;;;;;;7.45;6.47;;;14.10;99.90;;;;;;5061620;28;20016;-75
2021/09/24 06:00:19;;;;;;;9.48;6.15;;;14.10;99.90;;;;;;5070722;28;20386;-75
2021/09/24 06:02:46;;;;;;;7.85;6.78;;;14.10;99.90;;;;;;5067566;28;20025;-75
2021/09/24 06:05:13;;;;;;;7.85;7.05;;;14.10;99.90;;;;;;5067886;28;20499;-75
2021/09/24 06:07:39;;;;;;;7.78;6.50;;;14.10;99.90;;;;;;5061966;28;20043;-75
2021/09/24 06:10:07;;;;;;;7.40;6.07;;;14.20;99.90;;;;;;5073800;28;20029;-75
2021/09/24 06:12:32;;;;;;;9.43;6.10;;;14.20;99.90;;;;;;5054196;28;20364;-74
2021/09/24 06:15:00;;;;;;;11.07;6.53;;;14.20;99.90;;;;;;5056179;28;20029;-75
2021/09/24 06:17:27;;;;;;;6.97;6.13;;;14.10;99.90;;;;;;5066504;28;20062;-76
2021/09/24 06:19:52;;;;;;;8.57;5.72;;;14.20;99.90;;;;;;5068952;28;20060;-76
2021/09/24 06:22:19;;;;;;;9.57;5.60;;;14.20;99.90;;;;;;5068409;28;20150;-75
2021/09/24 06:24:45;;;;;;;8.75;6.30;;;14.20;99.90;;;;;;5069626;28;20044;-75
2021/09/24 06:27:14;;;;;;;8.60;6.45;;;14.20;99.90;;;;;;5065284;28;20049;-75
2021/09/24 06:29:52;;;;;;;8.63;6.13;;;14.20;99.90;;;;;;5069925;28;20021;-76
2021/09/24 06:32:18;;;;;;;9.93;6.43;;;14.20;99.90;;;;;;5060074;28;20017;-75
2021/09/24 06:34:45;;;;;;;9.07;6.15;;;14.20;99.90;;;;;;5066409;28;20479;-75
2021/09/24 06:37:11;;;;;;;8.10;6.35;;;14.20;99.90;;;;;;5054035;28;20028;-76
2021/09/24 06:39:37;;;;;;;7.63;6.32;;;14.20;99.90;;;;;;5066205;28;20036;-76
2021/09/24 06:42:03;;;;;;;12.70;6.55;;;14.20;99.90;;;;;;5055257;28;20024;-75
2021/09/24 06:44:29;;;;;;;10.35;6.93;;;14.20;99.90;;;;;;5072615;28;20028;-74
2021/09/24 06:46:54;;;;;;;9.13;6.65;;;14.20;99.90;;;;;;5073928;28;20046;-75
2021/09/24 06:49:22;;;;;;;7.75;6.13;;;14.30;99.90;;;;;;5056573;28;20068;-75
2021/09/24 06:51:49;;;;;;;8.68;7.00;;;14.20;99.90;;;;;;5053403;28;20483;-76
2021/09/24 06:54:14;;;;;;;8.93;6.75;;;14.20;99.90;;;;;;5067007;28;20078;-72
2021/09/24 06:56:40;;;;;;;8.75;7.07;;;14.20;99.90;;;;;;5055220;28;20429;-76
2021/09/24 06:59:05;;;;;;;9.25;7.15;;;14.30;99.90;;;;;;5053607;28;20036;-76
2021/09/24 07:01:31;;;;;;;9.95;7.13;;;14.30;99.90;;;;;;5063920;28;20029;-76
2021/09/24 07:03:57;;;;;;;8.20;6.85;;;14.30;99.90;;;;;;5059052;28;20029;-76
2021/09/24 07:06:22;;;;;;;11.98;7.20;;;14.40;99.90;;;;;;5070561;28;20024;-75
2021/09/24 07:08:48;;;;;;;10.48;7.50;;;14.40;99.90;;;;;;5055436;28;20028;-76
2021/09/24 07:11:13;;;;;;;11.07;8.35;;;14.40;99.90;;;;;;5053246;28;20062;-73
2021/09/24 07:13:39;;;;;;;9.20;7.60;;;14.40;99.90;;;;;;5053072;28;20072;-75
2021/09/24 07:16:05;;;;;;;11.25;8.10;;;14.40;99.90;;;;;;5061780;28;20063;-75
2021/09/24 07:18:31;;;;;;;14.40;8.73;;;14.40;99.90;;;;;;5056956;28;20127;-76
2021/09/24 07:20:57;;;;;;;11.02;8.07;;;14.40;99.90;;;;;;5062558;28;20021;-76
2021/09/24 07:23:23;;;;;;;9.70;7.65;;;14.50;99.90;;;;;;5068809;28;20020;-75
2021/09/24 07:25:50;;;;;;;13.00;9.60;;;14.50;99.90;;;;;;5053215;28;20025;-75
2021/09/24 07:28:15;;;;;;;15.18;9.07;;;14.50;99.90;;;;;;5067500;28;20028;-75
2021/09/24 07:30:41;;;;;;;11.68;8.32;;;14.50;99.90;;;;;;5072703;28;20024;-77
2021/09/24 07:33:07;;;;;;;11.60;9.00;;;14.60;99.90;;;;;;5058207;28;20391;-75
2021/09/24 07:35:33;;;;;;;15.50;9.65;;;14.60;99.90;;;;;;5063835;28;20024;-75
2021/09/24 07:37:59;;;;;;;14.52;9.20;;;14.60;99.90;;;;;;5066723;28;20032;-75
2021/09/24 07:40:24;;;;;;;13.85;9.27;;;14.60;99.90;;;;;;5062781;28;20030;-74
2021/09/24 07:42:50;;;;;;;11.38;9.55;;;14.60;99.90;;;;;;5069922;28;20115;-75
2021/09/24 07:45:16;;;;;;;13.13;10.18;;;14.60;99.90;;;;;;5062224;28;20025;-75
2021/09/24 07:47:41;;;;;;;15.73;10.02;;;14.60;99.90;;;;;;5056830;28;20056;-75
2021/09/24 07:50:07;;;;;;;17.27;9.85;;;14.70;99.90;;;;;;5052497;28;20487;-70
2021/09/24 07:52:33;;;;;;;15.70;10.50;;;14.70;99.90;;;;;;5052563;28;20021;-75
2021/09/24 07:54:59;;;;;;;13.43;9.85;;;14.70;99.90;;;;;;5061812;28;20394;-74
2021/09/24 07:57:24;;;;;;;14.27;9.77;;;14.80;99.90;;;;;;5056409;28;20612;-74
2021/09/24 07:59:50;;;;;;;12.48;9.65;;;14.80;99.90;;;;;;5052484;28;20036;-75
2021/09/24 08:02:16;;;;;;;13.38;10.50;;;14.80;99.90;;;;;;5065903;28;20043;-76
2021/09/24 08:04:41;;;;;;;21.17;10.77;;;14.90;99.90;;;;;;5061625;28;20025;-75
2021/09/24 08:07:08;;;;;;;12.52;9.90;;;15.00;99.90;;;;;;5056481;28;20029;-75
2021/09/24 08:09:34;;;;;;;19.48;10.70;;;14.90;99.90;;;;;;5052172;28;20028;-75
2021/09/24 08:11:59;;;;;;;13.80;10.23;;;14.90;99.90;;;;;;5065478;28;20028;-75
2021/09/24 08:14:25;;;;;;;16.77;10.70;;;14.90;99.90;;;;;;5060936;28;20023;-75
2021/09/24 08:16:50;;;;;;;16.30;10.32;;;14.90;99.90;;;;;;5058537;28;20021;-72
2021/09/24 08:19:16;;;;;;;13.45;10.23;;;14.90;99.90;;;;;;5072671;28;20033;-76
2021/09/24 08:21:41;;;;;;;15.88;10.38;;;14.90;99.90;;;;;;5056814;28;20025;-74
2021/09/24 08:24:07;;;;;;;12.95;9.38;;;14.90;99.90;;;;;;5052070;28;20025;-75
2021/09/24 08:26:33;;;;;;;17.27;10.48;;;14.90;99.90;;;;;;5053231;28;20021;-75
2021/09/24 08:28:58;;;;;;;14.55;9.18;;;14.90;99.90;;;;;;5064269;28;20029;-76
2021/09/24 08:31:24;;;;;;;12.98;9.80;;;14.90;99.90;;;;;;5065124;28;20021;-74
2021/09/24 08:33:49;;;;;;;14.13;9.70;;;14.90;99.90;;;;;;5064112;28;20028;-74
2021/09/24 08:36:16;;;;;;;14.07;9.40;;;15.00;99.90;;;;;;5065267;28;20024;-74
2021/09/24 08:38:43;;;;;;;11.85;8.93;;;15.00;99.90;;;;;;5059773;28;20397;-74
2021/09/24 08:41:09;;;;;;;14.93;9.60;;;15.10;99.90;;;;;;5056871;28;20025;-74
2021/09/24 08:43:34;;;;;;;12.38;9.70;;;15.10;99.90;;;;;;5051749;28;20025;-73
2021/09/24 08:46:00;;;;;;;11.35;9.13;;;15.10;99.90;;;;;;5052972;28;20025;-75
2021/09/24 08:48:28;;;;;;;10.80;9.20;;;15.10;99.90;;;;;;5062798;28;20029;-76
2021/09/24 08:50:55;;;;;;;13.75;8.55;;;15.20;99.90;;;;;;5054418;28;20093;-75
2021/09/24 08:53:21;;;;;;;11.88;9.60;;;15.30;99.90;;;;;;5058033;28;20022;-76
2021/09/24 08:55:47;;;;;;;12.82;9.13;;;15.40;99.90;;;;;;5065134;28;20036;-76
2021/09/24 08:58:14;;;;;;;13.75;9.02;;;15.40;99.90;;;;;;5060768;28;20111;-76
2021/09/24 09:00:43;;;;;;;11.82;9.48;;;15.40;99.90;;;;;;5056556;28;20564;-75
2021/09/24 09:03:15;;;;;;;15.50;10.35;;;15.40;99.90;;;;;;5061598;28;20139;-76
2021/09/24 09:05:45;;;;;;;14.25;9.52;;;15.40;99.90;;;;;;5063827;28;20029;-75
2021/09/24 09:08:15;;;;;;;12.23;9.43;;;15.30;99.90;;;;;;5065364;28;20021;-76
2021/09/24 09:10:49;;;;;;;15.68;10.15;;;15.60;99.90;;;;;;5070174;28;20025;-75
2021/09/24 09:13:15;;;;;;;13.13;9.77;;;15.60;99.90;;;;;;5068413;28;20431;-75
2021/09/24 09:15:51;;;;;;;18.08;10.32;;;15.80;99.90;;;;;;5055359;28;20044;-76
2021/09/24 09:18:18;;;;;;;16.00;10.50;;;15.80;99.90;;;;;;5069107;28;20067;-74
2021/09/24 09:20:46;;;;;;;17.23;11.18;;;15.60;99.90;;;;;;5063249;28;20490;-76
2021/09/24 09:23:12;;;;;;;18.48;11.48;;;15.70;99.90;;;;;;5061987;28;20036;-76
2021/09/24 09:25:40;;;;;;;17.05;11.52;;;15.70;99.90;;;;;;5065891;28;20036;-76
2021/09/24 09:28:12;;;;;;;14.70;10.52;;;15.60;99.90;;;;;;5069050;28;20020;-75
2021/09/24 09:30:42;;;;;;;15.57;10.73;;;15.70;99.90;;;;;;5063212;28;20380;-76
2021/09/24 09:33:08;;;;;;;15.60;10.88;;;15.90;99.90;;;;;;5061960;28;20020;-76
2021/09/24 09:35:43;;;;;;;19.23;11.10;;;15.90;99.90;;;;;;5065141;28;20494;-75
2021/09/24 09:38:21;;;;;;;17.35;10.43;;;15.90;99.90;;;;;;5068681;28;20036;-75
2021/09/24 09:40:53;;;;;;;25.65;10.43;;;16.00;99.90;;;;;;5067739;28;20552;-75
2021/09/24 09:43:26;;;;;;;17.27;10.52;;;16.30;99.90;;;;;;5062040;28;20038;-76
2021/09/24 09:45:51;;;;;;;20.35;10.80;;;16.20;99.90;;;;;;5060329;28;20638;-75
2021/09/24 09:48:17;;;;;;;16.63;11.32;;;16.10;99.90;;;;;;5067127;28;20033;-76
2021/09/24 09:50:43;;;;;;;15.18;10.77;;;16.20;99.90;;;;;;5055782;28;20029;-75
2021/09/24 09:53:11;;;;;;;14.98;10.77;;;16.20;99.90;;;;;;5065809;28;20032;-76
2021/09/24 09:55:40;;;;;;;14.45;10.80;;;16.20;99.90;;;;;;5067253;28;20513;-76
2021/09/24 09:58:08;;;;;;;17.75;10.63;;;16.30;99.90;;;;;;5060932;28;20055;-75
2021/09/24 10:00:37;;;;;;;16.25;11.68;;;16.30;99.90;;;;;;5060194;28;20499;-76
2021/09/24 10:03:06;;;;;;;16.75;11.25;;;16.40;99.90;;;;;;5065483;28;20510;-76
2021/09/24 10:05:41;;;;;;;18.00;10.88;;;16.40;99.90;;;;;;5068018;28;20029;-76
2021/09/24 10:08:33;;;;;;;14.98;10.32;;;16.40;99.90;;;;;;5065895;28;20024;-77
2021/09/24 10:11:07;;;;;;;17.05;11.15;;;16.60;99.90;;;;;;5062358;28;20078;-76
2021/09/24 10:13:36;;;;;;;15.18;10.75;;;16.60;99.90;;;;;;5061289;28;20380;-75
2021/09/24 10:16:03;;;;;;;15.40;10.60;;;16.80;99.90;;;;;;5065084;28;20047;-76
2021/09/24 10:18:30;;;;;;;17.65;10.55;;;16.90;99.90;;;;;;5066115;28;20029;-76
2021/09/24 10:20:56;;;;;;;15.80;10.52;;;16.80;99.90;;;;;;5064056;28;20024;-74
2021/09/24 10:23:22;;;;;;;16.55;11.45;;;16.80;99.90;;;;;;5056524;28;20504;-76
2021/09/24 10:25:54;;;;;;;15.07;10.48;;;16.70;99.90;;;;;;5064201;28;20383;-76
2021/09/24 10:28:20;;;;;;;14.85;10.65;;;16.80;99.90;;;;;;5060757;28;20381;-76
2021/09/24 10:30:46;;;;;;;15.98;10.07;;;16.90;99.90;;;;;;5068561;28;20029;-76
2021/09/24 10:33:13;;;;;;;13.38;9.88;;;16.90;99.90;;;;;;5057341;28;20033;-76
2021/09/24 10:35:47;;;;;;;15.98;10.20;;;17.10;99.90;;;;;;5064582;28;20059;-76
2021/09/24 10:38:13;;;;;;;15.88;10.68;;;17.20;99.90;;;;;;5060491;28;20099;-76
2021/09/24 10:41:14;;;;;;;17.17;10.15;;;17.30;99.90;;;;;;5062694;28;20050;-76
2021/09/24 10:43:44;;;;;;;12.40;9.35;;;17.10;99.90;;;;;;5041726;28;20039;-76
2021/09/24 10:46:30;;;;;;;13.63;9.38;;;17.20;99.90;;;;;;5067748;28;20041;-76
2021/09/24 10:49:15;;;;;;;15.10;10.05;;;17.40;99.90;;;;;;5054007;28;20028;-76
2021/09/24 10:52:08;;;;;;;16.35;10.40;;;17.20;99.90;;;;;;5062962;28;20020;-76
2021/09/24 10:54:50;;;;;;;13.15;9.18;;;17.30;99.90;;;;;;5067519;28;20032;-76
2021/09/24 10:57:15;;;;;;;15.40;9.52;;;17.30;99.90;;;;;;5067250;28;20135;-76
2021/09/24 10:59:41;;;;;;;15.57;9.88;;;17.30;99.90;;;;;;5062267;28;20063;-76
2021/09/24 11:02:39;;;;;;;17.40;10.90;;;17.20;99.90;;;;;;5058239;28;20028;-76
2021/09/24 11:05:09;;;;;;;13.65;9.50;;;17.00;99.90;;;;;;5064975;28;20028;-76
2021/09/24 11:07:36;;;;;;;12.77;9.85;;;17.20;99.90;;;;;;5059011;28;20079;-76
2021/09/24 11:10:04;;;;;;;11.93;9.50;;;17.30;99.90;;;;;;5060121;28;20025;-76
2021/09/24 11:12:29;;;;;;;13.77;8.98;;;17.40;99.90;;;;;;5067071;28;20107;-76
2021/09/24 11:15:13;;;;;;;13.25;8.63;;;17.40;99.90;;;;;;5064676;28;20146;-75
2021/09/24 11:17:48;;;;;;;12.85;9.07;;;17.40;99.90;;;;;;5063722;28;20090;-75
2021/09/24 11:20:32;;;;;;;12.63;9.05;;;17.60;99.90;;;;;;5066681;28;20024;-76
2021/09/24 11:22:59;;;;;;;15.70;9.57;;;17.70;99.90;;;;;;5053156;28;20033;-75
2021/09/24 11:25:24;;;;;;;12.85;7.97;;;17.90;99.90;;;;;;5063920;28;20371;-76
2021/09/24 11:27:50;;;;;;;10.82;8.18;;;17.90;99.90;;;;;;5061929;28;20047;-75
2021/09/24 11:30:24;;;;;;;13.02;8.55;;;18.00;99.90;;;;;;5062637;28;20024;-74
2021/09/24 11:32:56;;;;;;;11.77;7.90;;;18.10;99.90;;;;;;5060436;28;20021;-75
2021/09/24 11:35:28;;;;;;;13.25;8.63;;;17.90;99.90;;;;;;5057213;28;20016;-75
2021/09/24 11:38:04;;;;;;;12.23;8.48;;;17.90;99.90;;;;;;5052935;28;20383;-75
2021/09/24 11:40:31;;;;;;;12.10;7.80;;;18.00;99.90;;;;;;5068011;28;20020;-75
2021/09/24 11:42:59;;;;;;;9.43;7.60;;;18.00;99.90;;;;;;5054297;28;20553;-76
2021/09/24 11:45:29;;;;;;;10.27;7.68;;;18.00;99.90;;;;;;5053847;28;20031;-76
2021/09/24 11:48:09;;;;;;;12.35;7.43;;;18.00;99.90;;;;;;5065895;28;20565;-76
2021/09/24 11:50:36;;;;;;;8.93;6.20;;;18.10;99.90;;;;;;5051316;28;20056;-75
2021/09/24 11:53:04;;;;;;;9.30;7.28;;;18.30;99.90;;;;;;5072504;28;20078;-76
2021/09/24 11:55:38;;;;;;;9.73;6.63;;;18.10;99.90;;;;;;5068203;28;20032;-76
2021/09/24 11:58:05;;;;;;;8.75;6.90;;;18.10;99.90;;;;;;5052607;28;20017;-76
2021/09/24 12:00:43;;;;;;;8.90;7.00;;;18.10;99.90;;;;;;5065743;28;20647;-76
2021/09/24 12:03:19;;;;;;;10.57;6.50;;;18.10;99.90;;;;;;5050686;28;20028;-75
2021/09/24 12:06:08;;;;;;;8.73;6.40;;;18.10;99.90;;;;;;5056432;28;20506;-76
2021/09/24 12:08:43;;;;;;;8.70;5.15;;;18.30;99.90;;;;;;5058145;28;20533;-75
2021/09/24 12:11:15;;;;;;;7.78;5.70;;;18.50;99.90;;;;;;5061792;28;20040;-75
2021/09/24 12:13:57;;;;;;;9.75;6.20;;;18.50;99.90;;;;;;5055604;28;20040;-75
2021/09/24 12:16:25;;;;;;;9.80;6.28;;;18.50;99.90;;;;;;5060348;28;20498;-75
2021/09/24 12:18:58;;;;;;;15.52;6.22;;;18.40;99.90;;;;;;5065586;28;20021;-75
2021/09/24 12:21:37;;;;;;;9.52;5.50;;;18.60;99.90;;;;;;5065251;28;20017;-76
2021/09/24 12:24:06;;;;;;;7.38;5.32;;;18.50;99.90;;;;;;5060590;28;20031;-76
2021/09/24 12:26:35;;;;;;;8.00;5.60;;;18.60;99.90;;;;;;5058450;28;20104;-76
2021/09/24 12:29:02;;;;;;;7.78;5.85;;;18.50;99.90;;;;;;5062972;28;20037;-76
2021/09/24 12:31:33;;;;;;;5.85;5.07;;;18.40;99.90;;;;;;5063966;28;20036;-76
2021/09/24 12:33:59;;;;;;;6.82;4.40;;;18.40;99.90;;;;;;5061777;28;20012;-75
2021/09/24 12:36:24;;;;;;;5.97;4.60;;;18.50;99.90;;;;;;5058669;28;20055;-76
2021/09/24 12:38:50;;;;;;;6.38;4.20;;;18.50;99.90;;;;;;5061098;28;20029;-76
2021/09/24 12:41:18;;;;;;;6.75;4.82;;;18.40;99.90;;;;;;5064894;28;20526;-75